HEOC weather

October Airport
Cairo Governorate, Egypt

Public forecast

Using degrees Celsius for public forecast. Weather courtesy of forecast.io.

METAR (pilot weather report)

Closest report is Cairo International Airport, 35.5 nm (65.8 km) ENE. Retrieved 2019/03/26 20:00 UTC (48 minutes ago):

HECA 262000Z 36004KT 6000 NSC 18/08 Q1017

TAF (pilot weather forecast)

Closest forecast is Cairo International Airport, 35.5 nm (65.8 km) ENE. Retrieved 2019/03/26 18:50 UTC (2 hours ago):

TAF HECA 261700Z 2618/2724 27008KT 9999 SCT025 TEMPO 2700/2706 VRB03KT 4000 BR NSC